createdAt,value
2018-02-14T00:02:12.887Z,24.92
2018-02-14T00:04:42.781Z,30.20
2018-02-14T00:07:12.185Z,24.90
2018-02-14T00:09:40.721Z,23.97
2018-02-14T00:12:09.389Z,28.12
2018-02-14T00:14:38.549Z,26.17
2018-02-14T00:17:06.948Z,29.93
2018-02-14T00:19:35.335Z,26.12
2018-02-14T00:22:04.520Z,34.40
2018-02-14T00:24:32.917Z,33.63
2018-02-14T00:27:01.368Z,32.33
2018-02-14T00:29:29.998Z,27.53
2018-02-14T00:31:58.394Z,26.50
2018-02-14T00:34:27.815Z,35.83
2018-02-14T00:36:56.206Z,23.90
2018-02-14T00:39:24.866Z,21.27
2018-02-14T00:41:53.518Z,22.17
2018-02-14T00:44:22.181Z,29.65
2018-02-14T00:46:51.338Z,29.20
2018-02-14T00:49:19.712Z,38.43
2018-02-14T00:51:48.475Z,28.12
2018-02-14T00:54:17.905Z,31.30
2018-02-14T00:56:46.391Z,25.67
2018-02-14T00:59:14.802Z,29.13
2018-02-14T01:01:43.313Z,28.43
2018-02-14T01:04:11.705Z,36.30
2018-02-14T01:06:40.089Z,26.47
2018-02-14T01:09:08.919Z,33.65
2018-02-14T01:11:37.589Z,28.03
2018-02-14T01:14:06.258Z,31.92
2018-02-14T01:16:35.981Z,28.50
2018-02-14T01:19:09.866Z,30.27
2018-02-14T01:21:38.329Z,23.75
2018-02-14T01:24:07.766Z,29.50
2018-02-14T01:26:36.317Z,24.67
2018-02-14T01:29:04.701Z,26.87
2018-02-14T01:31:34.125Z,22.00
2018-02-14T01:34:02.690Z,27.53
2018-02-14T01:36:31.993Z,26.90
2018-02-14T01:39:00.387Z,30.77
2018-02-14T01:41:29.057Z,34.30
2018-02-14T01:43:57.449Z,26.07
2018-02-14T01:46:26.309Z,27.58
2018-02-14T01:48:55.625Z,24.70
2018-02-14T01:51:24.208Z,30.20
2018-02-14T01:53:52.889Z,37.10
2018-02-14T01:56:21.271Z,28.83
2018-02-14T01:58:49.662Z,31.90
2018-02-14T02:01:19.062Z,28.43
2018-02-14T02:03:48.265Z,34.10
2018-02-14T02:06:16.924Z,38.13
2018-02-14T02:08:45.322Z,30.47
2018-02-14T02:11:13.896Z,32.07
2018-02-14T02:13:41.952Z,34.15
2018-02-14T02:16:11.394Z,35.63
2018-02-14T02:18:40.062Z,27.10
2018-02-14T02:21:08.526Z,35.97
2018-02-14T02:23:36.926Z,33.60
2018-02-14T02:26:05.429Z,36.03
2018-02-14T02:28:34.578Z,32.33
2018-02-14T02:31:03.276Z,27.53
2018-02-14T02:33:31.670Z,31.60
2018-02-14T02:36:00.057Z,31.13
2018-02-14T02:38:29.326Z,30.13
2018-02-14T02:40:57.705Z,39.23
2018-02-14T02:43:26.101Z,28.77
2018-02-14T02:45:54.606Z,29.60
2018-02-14T02:48:23.771Z,30.80
2018-02-14T02:50:52.433Z,32.70
2018-02-14T02:53:21.101Z,32.40
2018-02-14T02:55:49.591Z,31.30
2018-02-14T02:58:18.212Z,31.73
2018-02-14T03:00:46.612Z,30.67
2018-02-14T03:03:15.269Z,29.17
2018-02-14T03:05:43.668Z,28.17
2018-02-14T03:08:12.816Z,29.70
2018-02-14T03:10:41.975Z,29.83
2018-02-14T03:13:11.121Z,32.60
2018-02-14T03:15:39.676Z,28.57
2018-02-14T03:18:09.107Z,36.60
2018-02-14T03:20:37.510Z,34.87
2018-02-14T03:23:06.178Z,32.40
2018-02-14T03:25:34.566Z,29.37
2018-02-14T03:28:03.046Z,27.87
2018-02-14T03:30:31.724Z,27.90
2018-02-14T03:33:00.374Z,27.20
2018-02-14T03:35:28.998Z,28.90
2018-02-14T03:37:58.146Z,35.20
2018-02-14T03:40:26.589Z,25.83
2018-02-14T03:42:55.034Z,31.53
2018-02-14T03:45:23.658Z,31.10
2018-02-14T03:47:52.809Z,24.53
2018-02-14T03:50:21.417Z,29.20
2018-02-14T03:52:49.793Z,26.70
2018-02-14T03:55:18.377Z,31.57
2018-02-14T03:57:47.553Z,32.40
2018-02-14T04:00:16.079Z,32.13
2018-02-14T04:02:44.741Z,31.53
2018-02-14T04:05:13.069Z,28.87
2018-02-14T04:07:41.452Z,32.23
2018-02-14T04:10:10.882Z,36.38
2018-02-14T04:12:39.551Z,32.10
2018-02-14T04:15:07.933Z,26.80
2018-02-14T04:17:36.317Z,32.77
2018-02-14T04:20:04.767Z,26.67
2018-02-14T04:22:33.166Z,23.30
2018-02-14T04:25:01.364Z,32.20
2018-02-14T04:27:30.025Z,30.48
2018-02-14T04:29:58.676Z,38.08
2018-02-14T04:32:27.054Z,45.00
2018-02-14T04:34:55.546Z,33.27
2018-02-14T04:37:24.446Z,27.47
2018-02-14T04:39:53.183Z,38.93
2018-02-14T04:42:22.342Z,27.57
2018-02-14T04:44:51.008Z,32.50
2018-02-14T04:47:19.389Z,28.97
2018-02-14T04:49:47.782Z,35.27
2018-02-14T04:52:16.157Z,35.10
2018-02-14T04:54:44.568Z,34.03
2018-02-14T04:57:13.253Z,30.05
2018-02-14T04:59:41.642Z,27.53
2018-02-14T05:02:10.793Z,40.37
2018-02-14T05:04:39.457Z,32.67
2018-02-14T05:07:07.841Z,31.30
2018-02-14T05:09:36.701Z,35.40
2018-02-14T05:12:05.350Z,26.40
2018-02-14T05:14:34.019Z,35.70
2018-02-14T05:17:02.701Z,30.55
2018-02-14T05:19:31.077Z,38.33
2018-02-14T05:21:59.469Z,32.50
2018-02-14T05:24:27.866Z,25.93
2018-02-14T05:26:56.384Z,33.90
2018-02-14T05:29:24.772Z,29.50
2018-02-14T05:31:53.484Z,30.07
2018-02-14T05:34:21.864Z,30.80
2018-02-14T05:36:50.495Z,32.83
2018-02-14T05:39:19.642Z,34.77
2018-02-14T05:41:48.262Z,27.57
2018-02-14T05:44:17.426Z,29.77
2018-02-14T05:46:45.844Z,35.23
2018-02-14T05:49:14.498Z,28.87
2018-02-14T05:51:43.798Z,40.57
2018-02-14T05:54:12.192Z,27.13
2018-02-14T05:56:40.866Z,24.23
2018-02-14T05:59:09.526Z,34.40
2018-02-14T06:01:37.921Z,27.57
2018-02-14T06:04:06.302Z,28.10
2018-02-14T06:06:34.500Z,28.33
2018-02-14T06:09:03.318Z,21.80
2018-02-14T06:11:31.728Z,43.23
2018-02-14T06:14:00.537Z,34.63
2018-02-14T06:16:29.085Z,29.80
2018-02-14T06:18:57.785Z,32.63
2018-02-14T06:21:26.186Z,31.70
2018-02-14T06:23:54.801Z,26.97
2018-02-14T06:26:23.199Z,31.10
2018-02-14T06:28:51.573Z,30.77
2018-02-14T06:31:20.463Z,30.97
2018-02-14T06:33:49.881Z,27.05
2018-02-14T06:36:18.546Z,35.23
2018-02-14T06:38:46.937Z,29.07
2018-02-14T06:41:15.498Z,29.33
2018-02-14T06:43:43.912Z,33.43
2018-02-14T06:46:12.310Z,32.57
2018-02-14T06:48:40.974Z,31.62
2018-02-14T06:51:09.654Z,30.95
2018-02-14T06:53:38.493Z,31.90
2018-02-14T06:56:07.154Z,36.60
2018-02-14T06:58:35.826Z,30.77
2018-02-14T07:01:04.493Z,36.55
2018-02-14T07:03:33.574Z,34.63
2018-02-14T07:06:03.018Z,36.40
2018-02-14T07:08:31.688Z,35.00
2018-02-14T07:11:00.066Z,28.33
2018-02-14T07:13:28.514Z,33.87
2018-02-14T07:15:56.891Z,39.57
2018-02-14T07:18:25.575Z,31.50
2018-02-14T07:20:55.721Z,28.93
2018-02-14T07:23:30.033Z,30.97
2018-02-14T07:25:58.630Z,31.77
2018-02-14T07:28:27.022Z,30.23
2018-02-14T07:30:55.406Z,28.30
2018-02-14T07:33:24.588Z,30.40
2018-02-14T07:35:52.970Z,38.10
2018-02-14T07:38:21.638Z,26.73
2018-02-14T07:40:50.022Z,33.57
2018-02-14T07:43:18.413Z,34.03
2018-02-14T07:45:46.981Z,29.93
2018-02-14T07:48:15.634Z,31.53
2018-02-14T07:50:44.009Z,27.80
2018-02-14T07:53:12.597Z,39.77
2018-02-14T07:55:40.785Z,31.13
2018-02-14T07:58:10.237Z,26.97
2018-02-14T08:00:39.397Z,28.57
2018-02-14T08:03:08.113Z,30.00
2018-02-14T08:05:36.788Z,23.25
2018-02-14T08:08:05.449Z,22.98
2018-02-14T08:10:33.933Z,26.77
2018-02-14T08:13:02.585Z,26.42
2018-02-14T08:15:30.975Z,22.73
2018-02-14T08:17:59.503Z,21.40
2018-02-14T08:20:28.065Z,25.17
2018-02-14T08:22:56.456Z,24.90
2018-02-14T08:25:25.108Z,23.33
2018-02-14T08:27:53.770Z,22.45
2018-02-14T08:30:23.099Z,18.00
2018-02-14T08:32:51.752Z,22.07
2018-02-14T08:35:20.419Z,21.23
2018-02-14T08:37:49.070Z,19.23
2018-02-14T08:40:17.660Z,22.20
2018-02-14T08:42:46.034Z,21.23
2018-02-14T08:45:14.417Z,22.80
2018-02-14T08:47:43.300Z,19.17
2018-02-14T08:50:12.006Z,24.20
2018-02-14T08:52:41.443Z,17.10
2018-02-14T08:55:10.149Z,18.50
2018-02-14T08:57:38.607Z,17.70
2018-02-14T09:00:08.117Z,15.02
2018-02-14T09:02:37.529Z,12.80
2018-02-14T09:05:06.178Z,13.10
2018-02-14T09:07:34.985Z,9.88
2018-02-14T09:10:03.358Z,8.90
2018-02-14T09:12:31.736Z,14.30
2018-02-14T09:15:00.124Z,14.40
2018-02-14T09:17:29.545Z,14.00
2018-02-14T09:19:57.869Z,9.73
2018-02-14T09:22:27.033Z,16.90
2018-02-14T09:24:55.713Z,18.08
2018-02-14T09:27:24.380Z,12.30
2018-02-14T09:29:53.045Z,13.62
2018-02-14T09:32:21.426Z,19.17
2018-02-14T09:34:49.800Z,13.40
2018-02-14T09:37:19.225Z,9.57
2018-02-14T09:39:47.936Z,9.80
2018-02-14T09:42:16.604Z,13.57
2018-02-14T09:44:44.972Z,9.07
2018-02-14T09:47:13.261Z,7.37
2018-02-14T09:49:41.722Z,6.40
2018-02-14T09:52:10.106Z,8.03
2018-02-14T09:54:38.476Z,6.40
2018-02-14T09:57:07.134Z,13.13
2018-02-14T09:59:36.577Z,6.43
2018-02-14T10:02:05.226Z,8.05
2018-02-14T10:04:33.798Z,5.60
2018-02-14T10:07:02.198Z,7.80
2018-02-14T10:09:30.569Z,6.30
2018-02-14T10:11:58.986Z,4.13
2018-02-14T10:14:27.521Z,5.23
2018-02-14T10:16:56.169Z,7.57
2018-02-14T10:19:24.541Z,7.70
2018-02-14T10:21:53.016Z,10.67
2018-02-14T10:24:21.759Z,6.85
2018-02-14T10:26:50.167Z,8.87
2018-02-14T10:29:18.823Z,7.30
2018-02-14T10:31:47.474Z,14.80
2018-02-14T10:34:16.623Z,6.93
2018-02-14T10:36:46.007Z,9.17
2018-02-14T10:39:14.390Z,5.83
2018-02-14T10:41:43.806Z,7.55
2018-02-14T10:44:12.196Z,6.90
2018-02-14T10:46:40.570Z,10.10
2018-02-14T10:49:08.950Z,6.57
2018-02-14T10:51:37.342Z,6.37
2018-02-14T10:54:07.108Z,10.15
2018-02-14T10:56:35.478Z,12.63
2018-02-14T10:59:03.854Z,5.27
2018-02-14T11:01:37.810Z,7.07
2018-02-14T11:04:12.494Z,8.57
2018-02-14T11:06:41.919Z,6.83
2018-02-14T11:09:10.305Z,6.70
2018-02-14T11:11:38.885Z,5.40
2018-02-14T11:14:07.217Z,8.23
2018-02-14T11:16:35.865Z,6.73
2018-02-14T11:19:04.411Z,12.67
2018-02-14T11:21:32.789Z,7.13
2018-02-14T11:24:02.217Z,10.27
2018-02-14T11:26:31.381Z,9.00
2018-02-14T11:29:00.247Z,10.48
2018-02-14T11:31:28.902Z,10.50
2018-02-14T11:33:57.481Z,7.80
2018-02-14T11:36:25.854Z,10.97
2018-02-14T11:38:54.234Z,20.27
2018-02-14T11:41:22.886Z,16.33
2018-02-14T11:43:51.266Z,12.60
2018-02-14T11:46:19.926Z,13.07
2018-02-14T11:48:49.234Z,10.93
2018-02-14T11:51:17.621Z,11.03
2018-02-14T11:53:45.993Z,13.37
2018-02-14T11:56:14.374Z,11.67
2018-02-14T11:58:42.812Z,8.43
2018-02-14T12:01:11.265Z,13.70
2018-02-14T12:03:40.600Z,10.90
2018-02-14T12:06:09.742Z,10.37
2018-02-14T12:08:38.177Z,12.03
2018-02-14T12:11:06.784Z,11.00
2018-02-14T12:13:36.189Z,13.93
2018-02-14T12:16:04.718Z,9.03
2018-02-14T12:18:33.085Z,9.40
2018-02-14T12:21:01.473Z,10.97
2018-02-14T12:23:30.946Z,13.50
2018-02-14T12:25:59.617Z,16.30
2018-02-14T12:28:29.030Z,9.60
2018-02-14T12:30:57.721Z,14.27
2018-02-14T12:33:26.379Z,15.60
2018-02-14T12:35:54.780Z,12.00
2018-02-14T12:38:23.237Z,13.63
2018-02-14T12:40:52.923Z,12.43
2018-02-14T12:43:22.080Z,17.27
2018-02-14T12:45:51.205Z,17.20
2018-02-14T12:48:20.361Z,10.73
2018-02-14T12:50:49.025Z,13.97
2018-02-14T12:53:17.415Z,19.87
2018-02-14T12:55:46.023Z,15.17
2018-02-14T12:58:14.730Z,15.98
2018-02-14T13:00:43.868Z,14.67
2018-02-14T13:03:12.259Z,16.70
2018-02-14T13:05:41.025Z,18.30
2018-02-14T13:08:09.410Z,17.03
2018-02-14T13:10:38.839Z,14.95
2018-02-14T13:13:07.222Z,13.33
2018-02-14T13:15:35.878Z,22.45
2018-02-14T13:18:04.262Z,17.27
2018-02-14T13:20:32.634Z,21.37
2018-02-14T13:23:02.060Z,20.67
2018-02-14T13:25:30.518Z,19.60
2018-02-14T13:27:59.183Z,17.75
2018-02-14T13:30:28.534Z,16.53
2018-02-14T13:32:56.922Z,18.40
2018-02-14T13:35:25.313Z,18.53
2018-02-14T13:37:54.001Z,20.27
2018-02-14T13:40:22.661Z,25.05
2018-02-14T13:42:51.051Z,19.70
2018-02-14T13:45:19.433Z,19.23
2018-02-14T13:47:48.573Z,23.43
2018-02-14T13:50:18.009Z,19.20
2018-02-14T13:52:46.461Z,18.00
2018-02-14T13:55:14.845Z,17.17
2018-02-14T13:57:43.229Z,17.70
2018-02-14T14:00:11.873Z,21.12
2018-02-14T14:02:41.133Z,16.60
2018-02-14T14:05:09.787Z,24.03
2018-02-14T14:07:38.128Z,24.10
2018-02-14T14:10:06.830Z,17.58
2018-02-14T14:12:36.253Z,30.62
2018-02-14T14:15:04.303Z,25.10
2018-02-14T14:17:33.001Z,19.65
2018-02-14T14:20:02.087Z,21.23
2018-02-14T14:22:31.514Z,23.25
2018-02-14T14:25:00.188Z,23.60
2018-02-14T14:27:29.059Z,17.93
2018-02-14T14:29:57.449Z,22.63
2018-02-14T14:32:26.107Z,22.10
2018-02-14T14:34:54.758Z,25.05
2018-02-14T14:37:24.224Z,23.00
2018-02-14T14:39:53.430Z,22.40
2018-02-14T14:42:21.808Z,25.93
2018-02-14T14:44:50.188Z,27.63
2018-02-14T14:47:18.850Z,29.50
2018-02-14T14:49:47.265Z,27.53
2018-02-14T14:52:15.934Z,30.13
2018-02-14T14:54:44.606Z,33.13
2018-02-14T14:57:12.998Z,26.97
2018-02-14T14:59:41.385Z,31.40
2018-02-14T15:02:09.770Z,31.07
2018-02-14T15:04:38.317Z,30.73
2018-02-14T15:07:07.770Z,32.08
2018-02-14T15:09:36.938Z,25.47
2018-02-14T15:12:05.694Z,29.75
2018-02-14T15:14:34.069Z,37.87
2018-02-14T15:17:05.742Z,28.67
2018-02-14T15:19:34.122Z,30.83
2018-02-14T15:22:02.523Z,29.70
2018-02-14T15:24:41.743Z,32.57
2018-02-14T15:27:10.413Z,36.23
2018-02-14T15:29:38.833Z,32.00
2018-02-14T15:32:07.505Z,35.07
2018-02-14T15:34:35.992Z,37.97
2018-02-14T15:37:04.669Z,37.08
2018-02-14T15:39:33.454Z,28.12
2018-02-14T15:42:20.639Z,31.77
2018-02-14T15:44:59.836Z,28.50
2018-02-14T15:47:28.965Z,34.80
2018-02-14T15:49:58.428Z,35.30
2018-02-14T15:52:27.582Z,38.77
2018-02-14T15:54:56.234Z,34.08
2018-02-14T15:57:24.856Z,39.30
2018-02-14T15:59:53.244Z,33.20
2018-02-14T16:02:21.634Z,34.70
2018-02-14T16:04:50.294Z,34.00
2018-02-14T16:07:18.687Z,29.80
2018-02-14T16:09:47.076Z,35.92
2018-02-14T16:12:15.894Z,31.83
2018-02-14T16:14:44.559Z,28.87
2018-02-14T16:17:13.022Z,40.03
2018-02-14T16:19:41.409Z,31.40
2018-02-14T16:22:09.804Z,37.43
2018-02-14T16:24:38.221Z,33.27
2018-02-14T16:27:06.837Z,31.87
2018-02-14T16:29:35.989Z,30.27
2018-02-14T16:32:05.425Z,33.88
2018-02-14T16:34:33.811Z,38.27
2018-02-14T16:37:02.465Z,31.60
2018-02-14T16:39:31.482Z,32.33
2018-02-14T16:42:00.209Z,33.87
2018-02-14T16:44:29.005Z,35.07
2018-02-14T16:46:57.527Z,35.97
2018-02-14T16:49:25.925Z,35.30
2018-02-14T16:51:54.405Z,37.00
2018-02-14T16:54:22.990Z,34.60
2018-02-14T16:56:51.668Z,36.92
2018-02-14T16:59:20.312Z,36.00
2018-02-14T17:01:48.988Z,41.93
2018-02-14T17:04:17.652Z,33.40
2018-02-14T17:06:46.790Z,36.77
2018-02-14T17:09:15.176Z,41.00
2018-02-14T17:11:43.839Z,38.00
2018-02-14T17:14:12.234Z,40.73
2018-02-14T17:16:40.439Z,47.63
2018-02-14T17:19:09.028Z,48.87
2018-02-14T17:21:37.403Z,38.10
2018-02-14T17:24:05.802Z,39.63
2018-02-14T17:26:34.461Z,40.12
2018-02-14T17:29:02.881Z,42.20
2018-02-14T17:31:31.376Z,37.70
2018-02-14T17:34:00.074Z,45.93
2018-02-14T17:36:28.493Z,45.00
2018-02-14T17:38:57.815Z,48.03
2018-02-14T17:41:26.523Z,39.50
2018-02-14T17:43:55.967Z,40.88
2018-02-14T17:46:24.457Z,39.90
2018-02-14T17:48:53.754Z,40.73
2018-02-14T17:51:22.417Z,48.90
2018-02-14T17:53:51.085Z,48.33
2018-02-14T17:56:19.485Z,45.37
2018-02-14T17:58:47.879Z,45.57
2018-02-14T18:01:16.594Z,40.63
2018-02-14T18:03:45.756Z,49.37
2018-02-14T18:06:14.412Z,43.15
2018-02-14T18:08:42.808Z,48.87
2018-02-14T18:11:11.196Z,45.93
2018-02-14T18:13:39.786Z,46.47
2018-02-14T18:16:12.276Z,44.43
2018-02-14T18:18:41.447Z,52.77
2018-02-14T18:21:10.114Z,52.43
2018-02-14T18:23:38.507Z,40.77
2018-02-14T18:26:06.999Z,61.87
2018-02-14T18:28:35.546Z,44.73
2018-02-14T18:31:04.027Z,45.42
2018-02-14T18:33:32.414Z,46.37
2018-02-14T18:36:01.087Z,45.53
2018-02-14T18:38:29.522Z,47.97
2018-02-14T18:40:58.690Z,45.30
2018-02-14T18:43:31.257Z,49.93
2018-02-14T18:45:59.664Z,45.53
2018-02-14T18:48:28.414Z,48.67
2018-02-14T18:50:57.086Z,48.78
2018-02-14T18:53:25.642Z,44.95
2018-02-14T18:55:54.111Z,49.30
2018-02-14T18:58:23.078Z,53.17
2018-02-14T19:00:51.461Z,49.17
2018-02-14T19:03:20.022Z,48.00
2018-02-14T19:05:49.551Z,43.57
2018-02-14T19:08:19.242Z,57.13
2018-02-14T19:10:48.674Z,48.63
2018-02-14T19:13:17.532Z,55.30
2018-02-14T19:15:45.977Z,48.13
2018-02-14T19:18:15.410Z,54.60
2018-02-14T19:20:43.852Z,52.10
2018-02-14T19:23:12.393Z,52.10
2018-02-14T19:25:41.546Z,51.63
2018-02-14T19:28:09.937Z,46.90
2018-02-14T19:30:38.597Z,47.25
2018-02-14T19:33:08.042Z,44.08
2018-02-14T19:35:36.421Z,44.90
2018-02-14T19:38:04.791Z,44.90
2018-02-14T19:40:33.368Z,52.70
2018-02-14T19:43:02.029Z,54.50
2018-02-14T19:45:30.683Z,58.15
2018-02-14T19:47:59.353Z,51.75
2018-02-14T19:50:28.943Z,52.00
2018-02-14T19:52:57.636Z,50.33
2018-02-14T19:55:26.305Z,46.80
2018-02-14T19:57:54.527Z,54.17
2018-02-14T20:00:23.978Z,48.55
2018-02-14T20:02:52.357Z,44.87
2018-02-14T20:05:20.755Z,48.07
2018-02-14T20:07:50.209Z,54.50
2018-02-14T20:10:18.608Z,50.87
2018-02-14T20:12:47.305Z,48.63
2018-02-14T20:15:15.710Z,42.80
2018-02-14T20:17:44.858Z,50.73
2018-02-14T20:20:13.358Z,50.97
2018-02-14T20:22:41.746Z,50.37
2018-02-14T20:25:10.410Z,55.08
2018-02-14T20:27:38.800Z,48.30
2018-02-14T20:30:07.318Z,51.50
2018-02-14T20:32:36.258Z,53.85
2018-02-14T20:35:04.618Z,51.27
2018-02-14T20:37:33.002Z,50.63
2018-02-14T20:40:01.665Z,57.53
2018-02-14T20:42:30.147Z,55.70
2018-02-14T20:44:58.541Z,55.33
2018-02-14T20:47:28.031Z,50.60
2018-02-14T20:49:56.477Z,49.63
2018-02-14T20:52:25.129Z,50.15
2018-02-14T20:54:53.573Z,62.80
2018-02-14T20:57:21.954Z,50.47
2018-02-14T20:59:51.391Z,48.67
2018-02-14T21:02:19.803Z,50.37
2018-02-14T21:07:23.525Z,53.83
2018-02-14T21:09:52.245Z,47.33
2018-02-14T21:12:20.659Z,54.23
2018-02-14T21:14:49.357Z,46.10
2018-02-14T21:17:17.869Z,48.17
2018-02-14T21:19:46.273Z,55.73
2018-02-14T21:22:14.943Z,46.37
2018-02-14T21:24:44.451Z,52.83
2018-02-14T21:27:13.077Z,62.30
2018-02-14T21:29:41.773Z,55.95
2018-02-14T21:32:10.973Z,51.00
2018-02-14T21:34:39.968Z,49.13
2018-02-14T21:37:09.157Z,45.57
2018-02-14T21:39:38.457Z,54.43
2018-02-14T21:42:06.874Z,59.93
2018-02-14T21:44:35.381Z,48.20
2018-02-14T21:47:04.065Z,50.05
2018-02-14T21:49:32.750Z,53.22
2018-02-14T21:52:01.319Z,47.13
2018-02-14T21:54:29.730Z,44.87
2018-02-14T21:56:58.408Z,50.90
2018-02-14T21:59:26.861Z,44.10
2018-02-14T22:01:55.414Z,50.93
2018-02-14T22:04:24.141Z,51.27
2018-02-14T22:06:52.556Z,58.87
2018-02-14T22:09:20.962Z,55.97
2018-02-14T22:11:49.597Z,53.00
2018-02-14T22:14:18.114Z,40.50
2018-02-14T22:16:47.285Z,54.07
2018-02-14T22:19:15.773Z,45.10
2018-02-14T22:21:44.206Z,47.97
2018-02-14T22:24:13.658Z,47.55
2018-02-14T22:26:42.242Z,49.30
2018-02-14T22:29:10.849Z,48.83
2018-02-14T22:31:39.259Z,49.40
2018-02-14T22:34:07.828Z,59.27
2018-02-14T22:36:37.431Z,45.35
2018-02-14T22:39:06.113Z,53.17
2018-02-14T22:41:34.603Z,42.93
2018-02-14T22:44:03.439Z,47.43
2018-02-14T22:46:31.841Z,52.13
2018-02-14T22:49:01.021Z,47.07
2018-02-14T22:51:29.721Z,49.53
2018-02-14T22:53:58.460Z,48.30
2018-02-14T22:56:27.072Z,49.30
2018-02-14T22:58:55.506Z,51.13
2018-02-14T23:01:23.959Z,46.07
2018-02-14T23:03:53.128Z,48.87
2018-02-14T23:06:22.333Z,50.53
2018-02-14T23:08:51.070Z,41.60
2018-02-14T23:11:20.547Z,55.15
2018-02-14T23:13:49.016Z,44.45
2018-02-14T23:16:18.222Z,60.13
2018-02-14T23:18:46.661Z,57.43
2018-02-14T23:21:16.558Z,50.73
2018-02-14T23:23:45.236Z,53.65
2018-02-14T23:26:13.654Z,51.97
2018-02-14T23:28:42.066Z,60.67
2018-02-14T23:31:10.742Z,53.63
2018-02-14T23:33:39.162Z,49.00
2018-02-14T23:36:07.833Z,48.30
2018-02-14T23:38:36.530Z,51.53
2018-02-14T23:41:05.234Z,43.20
2018-02-14T23:43:33.926Z,46.80
2018-02-14T23:46:02.629Z,52.38
2018-02-14T23:48:31.318Z,44.63
2018-02-14T23:51:00.008Z,50.93
2018-02-14T23:53:29.449Z,47.13
2018-02-14T23:55:58.101Z,53.13
2018-02-14T23:58:26.501Z,50.70
